createdAt,value
2018-09-20T00:00:59.585Z,21.39
2018-09-20T00:01:59.740Z,21.4
2018-09-20T00:02:59.608Z,21.39
2018-09-20T00:03:59.859Z,21.4
2018-09-20T00:04:59.821Z,21.39
2018-09-20T00:06:00.022Z,21.39
2018-09-20T00:06:59.712Z,21.4
2018-09-20T00:07:59.945Z,21.4
2018-09-20T00:08:59.693Z,21.38
2018-09-20T00:09:59.794Z,21.39
2018-09-20T00:10:59.889Z,21.39
2018-09-20T00:12:00.163Z,21.38
2018-09-20T00:12:59.879Z,21.39
2018-09-20T00:13:59.741Z,21.39
2018-09-20T00:14:59.634Z,21.39
2018-09-20T00:15:59.658Z,21.37
2018-09-20T00:16:59.705Z,21.38
2018-09-20T00:18:00.013Z,21.39
2018-09-20T00:18:59.707Z,21.37
2018-09-20T00:19:59.732Z,21.38
2018-09-20T00:20:59.684Z,21.38
2018-09-20T00:21:59.607Z,21.38
2018-09-20T00:22:59.511Z,21.37
2018-09-20T00:23:59.741Z,21.36
2018-09-20T00:24:59.915Z,21.38
2018-09-20T00:25:59.798Z,21.38
2018-09-20T00:26:59.948Z,21.37
2018-09-20T00:27:59.693Z,21.38
2018-09-20T00:28:59.695Z,21.37
2018-09-20T00:29:59.731Z,21.37
2018-09-20T00:30:59.734Z,21.39
2018-09-20T00:31:59.899Z,21.37
2018-09-20T00:32:59.775Z,21.37
2018-09-20T00:33:59.642Z,21.37
2018-09-20T00:34:59.888Z,21.37
2018-09-20T00:35:59.877Z,21.36
2018-09-20T00:36:59.594Z,21.37
2018-09-20T00:37:59.829Z,21.36
2018-09-20T00:38:59.926Z,21.36
2018-09-20T00:39:59.649Z,21.36
2018-09-20T00:40:59.816Z,21.36
2018-09-20T00:41:59.612Z,21.36
2018-09-20T00:42:59.918Z,21.36
2018-09-20T00:43:59.617Z,21.36
2018-09-20T00:44:59.716Z,21.36
2018-09-20T00:45:59.616Z,21.36
2018-09-20T00:46:59.716Z,21.36
2018-09-20T00:47:59.558Z,21.36
2018-09-20T00:48:59.546Z,21.35
2018-09-20T00:49:59.821Z,21.36
2018-09-20T00:51:00.184Z,21.35
2018-09-20T00:51:59.661Z,21.35
2018-09-20T00:52:59.751Z,21.35
2018-09-20T00:54:00.447Z,21.35
2018-09-20T00:55:00.149Z,21.34
2018-09-20T00:56:00.022Z,21.34
2018-09-20T00:56:59.631Z,21.34
2018-09-20T00:57:59.639Z,21.35
2018-09-20T00:58:59.664Z,21.35
2018-09-20T00:59:59.817Z,21.34
2018-09-20T01:00:59.640Z,21.35
2018-09-20T01:02:00.138Z,21.35
2018-09-20T01:02:59.622Z,21.34
2018-09-20T01:04:00.110Z,21.35
2018-09-20T01:04:59.949Z,21.35
2018-09-20T01:05:59.552Z,21.34
2018-09-20T01:06:59.687Z,21.34
2018-09-20T01:07:59.734Z,21.34
2018-09-20T01:08:59.670Z,21.34
2018-09-20T01:09:59.541Z,21.33
2018-09-20T01:10:59.729Z,21.33
2018-09-20T01:11:59.678Z,21.33
2018-09-20T01:12:59.638Z,21.34
2018-09-20T01:13:59.762Z,21.33
2018-09-20T01:14:59.868Z,21.32
2018-09-20T01:15:59.736Z,21.33
2018-09-20T01:16:59.719Z,21.33
2018-09-20T01:17:59.830Z,21.33
2018-09-20T01:18:59.642Z,21.34
2018-09-20T01:19:59.756Z,21.33
2018-09-20T01:20:59.596Z,21.33
2018-09-20T01:21:59.715Z,21.33
2018-09-20T01:22:59.614Z,21.32
2018-09-20T01:23:59.585Z,21.33
2018-09-20T01:24:59.723Z,21.33
2018-09-20T01:25:59.653Z,21.32
2018-09-20T01:26:59.681Z,21.33
2018-09-20T01:27:59.637Z,21.33
2018-09-20T01:28:59.780Z,21.33
2018-09-20T01:29:59.896Z,21.32
2018-09-20T01:30:59.578Z,21.33
2018-09-20T01:31:59.705Z,21.32
2018-09-20T01:32:59.661Z,21.32
2018-09-20T01:34:00.042Z,21.32
2018-09-20T01:34:59.598Z,21.32
2018-09-20T01:35:59.630Z,21.33
2018-09-20T01:36:59.522Z,21.32
2018-09-20T01:37:59.837Z,21.32
2018-09-20T01:38:59.577Z,21.32
2018-09-20T01:39:59.549Z,21.31
2018-09-20T01:40:59.729Z,21.32
2018-09-20T01:41:59.623Z,21.33
2018-09-20T01:42:59.649Z,21.32
2018-09-20T01:43:59.583Z,21.32
2018-09-20T01:44:59.692Z,21.31
2018-09-20T01:45:59.710Z,21.31
2018-09-20T01:46:59.666Z,21.31
2018-09-20T01:47:59.845Z,21.31
2018-09-20T01:48:59.633Z,21.31
2018-09-20T01:49:59.722Z,21.31
2018-09-20T01:50:59.570Z,21.32
2018-09-20T01:51:59.831Z,21.31
2018-09-20T01:52:59.870Z,21.31
2018-09-20T01:53:59.925Z,21.31
2018-09-20T01:54:59.646Z,21.31
2018-09-20T01:55:59.793Z,21.3
2018-09-20T01:56:59.876Z,21.31
2018-09-20T01:57:59.778Z,21.32
2018-09-20T01:58:59.726Z,21.31
2018-09-20T01:59:59.838Z,21.3
2018-09-20T02:00:59.801Z,21.31
2018-09-20T02:01:59.810Z,21.31
2018-09-20T02:02:59.606Z,21.31
2018-09-20T02:03:59.792Z,21.3
2018-09-20T02:04:59.813Z,21.3
2018-09-20T02:05:59.573Z,21.31
2018-09-20T02:06:59.724Z,21.31
2018-09-20T02:07:59.650Z,21.3
2018-09-20T02:08:59.648Z,21.3
2018-09-20T02:10:00.105Z,21.3
2018-09-20T02:10:59.534Z,21.3
2018-09-20T02:11:59.778Z,21.3
2018-09-20T02:12:59.759Z,21.3
2018-09-20T02:13:59.703Z,21.3
2018-09-20T02:14:59.838Z,21.3
2018-09-20T02:15:59.505Z,21.31
2018-09-20T02:16:59.746Z,21.31
2018-09-20T02:17:59.620Z,21.3
2018-09-20T02:18:59.531Z,21.3
2018-09-20T02:19:59.548Z,21.29
2018-09-20T02:20:59.683Z,21.3
2018-09-20T02:21:59.577Z,21.29
2018-09-20T02:22:59.641Z,21.29
2018-09-20T02:23:59.978Z,21.29
2018-09-20T02:24:59.668Z,21.3
2018-09-20T02:25:59.614Z,21.3
2018-09-20T02:26:59.894Z,21.29
2018-09-20T02:27:59.723Z,21.3
2018-09-20T02:28:59.539Z,21.3
2018-09-20T02:29:59.615Z,21.3
2018-09-20T02:30:59.832Z,21.28
2018-09-20T02:31:59.555Z,21.29
2018-09-20T02:32:59.684Z,21.31
2018-09-20T02:33:59.765Z,21.29
2018-09-20T02:34:59.726Z,21.29
2018-09-20T02:35:59.612Z,21.3
2018-09-20T02:36:59.606Z,21.31
2018-09-20T02:37:59.591Z,21.3
2018-09-20T02:38:59.697Z,21.3
2018-09-20T02:39:59.827Z,21.3
2018-09-20T02:40:59.623Z,21.29
2018-09-20T02:41:59.697Z,21.3
2018-09-20T02:42:59.597Z,21.3
2018-09-20T02:43:59.607Z,21.29
2018-09-20T02:44:59.622Z,21.3
2018-09-20T02:45:59.941Z,21.3
2018-09-20T02:46:59.660Z,21.3
2018-09-20T02:47:59.666Z,21.3
2018-09-20T02:48:59.680Z,21.29
2018-09-20T02:49:59.689Z,21.29
2018-09-20T02:50:59.665Z,21.29
2018-09-20T02:51:59.720Z,21.28
2018-09-20T02:52:59.565Z,21.3
2018-09-20T02:54:00.107Z,21.3
2018-09-20T02:54:59.642Z,21.29
2018-09-20T02:55:59.659Z,21.3
2018-09-20T02:56:59.594Z,21.3
2018-09-20T02:57:59.705Z,21.29
2018-09-20T02:58:59.583Z,21.29
2018-09-20T02:59:59.636Z,21.3
2018-09-20T03:00:59.699Z,21.3
2018-09-20T03:01:59.533Z,21.3
2018-09-20T03:02:59.858Z,21.28
2018-09-20T03:03:59.685Z,21.29
2018-09-20T03:04:59.775Z,21.3
2018-09-20T03:05:59.759Z,21.29
2018-09-20T03:06:59.647Z,21.28
2018-09-20T03:07:59.642Z,21.29
2018-09-20T03:08:59.725Z,21.28
2018-09-20T03:09:59.660Z,21.28
2018-09-20T03:10:59.668Z,21.28
2018-09-20T03:11:59.894Z,21.29
2018-09-20T03:12:59.511Z,21.28
2018-09-20T03:13:59.970Z,21.29
2018-09-20T03:14:59.631Z,21.29
2018-09-20T03:15:59.968Z,21.28
2018-09-20T03:16:59.510Z,21.28
2018-09-20T03:17:59.738Z,21.27
2018-09-20T03:18:59.715Z,21.28
2018-09-20T03:19:59.838Z,21.29
2018-09-20T03:20:59.681Z,21.27
2018-09-20T03:21:59.480Z,21.28
2018-09-20T03:22:59.788Z,21.28
2018-09-20T03:23:59.769Z,21.27
2018-09-20T03:24:59.668Z,21.27
2018-09-20T03:25:59.848Z,21.28
2018-09-20T03:26:59.752Z,21.28
2018-09-20T03:27:59.604Z,21.28
2018-09-20T03:28:59.449Z,21.29
2018-09-20T03:29:59.800Z,21.27
2018-09-20T03:30:59.731Z,21.27
2018-09-20T03:31:59.883Z,21.27
2018-09-20T03:32:59.583Z,21.28
2018-09-20T03:33:59.599Z,21.27
2018-09-20T03:34:59.751Z,21.27
2018-09-20T03:35:59.699Z,21.27
2018-09-20T03:36:59.712Z,21.27
2018-09-20T03:37:59.732Z,21.27
2018-09-20T03:38:59.883Z,21.27
2018-09-20T03:39:59.573Z,21.28
2018-09-20T03:40:59.740Z,21.27
2018-09-20T03:41:59.739Z,21.27
2018-09-20T03:42:59.963Z,21.27
2018-09-20T03:43:59.651Z,21.27
2018-09-20T03:44:59.771Z,21.27
2018-09-20T03:45:59.689Z,21.26
2018-09-20T03:46:59.637Z,21.27
2018-09-20T03:47:59.545Z,21.28
2018-09-20T03:48:59.853Z,21.27
2018-09-20T03:49:59.679Z,21.26
2018-09-20T03:50:59.777Z,21.27
2018-09-20T03:51:59.697Z,21.27
2018-09-20T03:52:59.682Z,21.28
2018-09-20T03:53:59.565Z,21.26
2018-09-20T03:54:59.577Z,21.27
2018-09-20T03:55:59.558Z,21.27
2018-09-20T03:56:59.651Z,21.28
2018-09-20T03:57:59.705Z,21.27
2018-09-20T03:58:59.557Z,21.28
2018-09-20T03:59:59.614Z,21.27
2018-09-20T04:00:59.701Z,21.26
2018-09-20T04:01:59.582Z,21.27
2018-09-20T04:02:59.721Z,21.27
2018-09-20T04:03:59.699Z,21.27
2018-09-20T04:04:59.696Z,21.27
2018-09-20T04:05:59.587Z,21.27
2018-09-20T04:06:59.869Z,21.27
2018-09-20T04:07:59.616Z,21.25
2018-09-20T04:08:59.759Z,21.25
2018-09-20T04:09:59.816Z,21.26
2018-09-20T04:10:59.695Z,21.25
2018-09-20T04:11:59.945Z,21.26
2018-09-20T04:12:59.659Z,21.25
2018-09-20T04:13:59.636Z,21.26
2018-09-20T04:14:59.868Z,21.27
2018-09-20T04:15:59.850Z,21.26
2018-09-20T04:16:59.700Z,21.26
2018-09-20T04:17:59.876Z,21.26
2018-09-20T04:19:00.008Z,21.26
2018-09-20T04:19:59.642Z,21.26
2018-09-20T04:20:59.774Z,21.26
2018-09-20T04:21:59.642Z,21.26
2018-09-20T04:22:59.733Z,21.25
2018-09-20T04:23:59.665Z,21.25
2018-09-20T04:24:59.622Z,21.25
2018-09-20T04:25:59.723Z,21.26
2018-09-20T04:26:59.752Z,21.26
2018-09-20T04:27:59.585Z,21.25
2018-09-20T04:28:59.645Z,21.24
2018-09-20T04:29:59.869Z,21.24
2018-09-20T04:30:59.866Z,21.26
2018-09-20T04:31:59.604Z,21.25
2018-09-20T04:32:59.753Z,21.26
2018-09-20T04:33:59.616Z,21.26
2018-09-20T04:34:59.713Z,21.25
2018-09-20T04:35:59.763Z,21.25
2018-09-20T04:36:59.657Z,21.24
2018-09-20T04:37:59.610Z,21.25
2018-09-20T04:38:59.629Z,21.25
2018-09-20T04:39:59.702Z,21.24
2018-09-20T04:40:59.620Z,21.25
2018-09-20T04:41:59.592Z,21.24
2018-09-20T04:42:59.662Z,21.24
2018-09-20T04:43:59.854Z,21.25
2018-09-20T04:44:59.537Z,21.25
2018-09-20T04:45:59.880Z,21.25
2018-09-20T04:46:59.770Z,21.25
2018-09-20T04:47:59.906Z,21.25
2018-09-20T04:48:59.816Z,21.25
2018-09-20T04:50:00.121Z,21.25
2018-09-20T04:50:59.632Z,21.24
2018-09-20T04:51:59.651Z,21.25
2018-09-20T04:53:00.550Z,21.24
2018-09-20T04:53:59.824Z,21.23
2018-09-20T04:54:59.693Z,21.23
2018-09-20T04:55:59.459Z,21.24
2018-09-20T04:56:59.565Z,21.24
2018-09-20T04:57:59.869Z,21.25
2018-09-20T04:58:59.619Z,21.24
2018-09-20T04:59:59.654Z,21.23
2018-09-20T05:00:59.665Z,21.23
2018-09-20T05:01:59.639Z,21.23
2018-09-20T05:02:59.629Z,21.22
2018-09-20T05:03:59.642Z,21.22
2018-09-20T05:04:59.730Z,21.22
2018-09-20T05:05:59.661Z,21.22
2018-09-20T05:06:59.708Z,21.22
2018-09-20T05:07:59.649Z,21.24
2018-09-20T05:08:59.509Z,21.24
2018-09-20T05:09:59.936Z,21.22
2018-09-20T05:10:59.608Z,21.22
2018-09-20T05:11:59.649Z,21.21
2018-09-20T05:12:59.531Z,21.21
2018-09-20T05:13:59.655Z,21.22
2018-09-20T05:14:59.611Z,21.22
2018-09-20T05:15:59.651Z,21.22
2018-09-20T05:16:59.744Z,21.22
2018-09-20T05:17:59.570Z,21.22
2018-09-20T05:18:59.569Z,21.22
2018-09-20T05:19:59.469Z,21.22
2018-09-20T05:20:59.689Z,21.23
2018-09-20T05:21:59.428Z,21.23
2018-09-20T05:22:59.653Z,21.22
2018-09-20T05:23:59.521Z,21.21
2018-09-20T05:24:59.649Z,21.21
2018-09-20T05:25:59.553Z,21.22
2018-09-20T05:26:59.584Z,21.21
2018-09-20T05:27:59.559Z,21.22
2018-09-20T05:28:59.463Z,21.21
2018-09-20T05:29:59.587Z,21.22
2018-09-20T05:30:59.547Z,21.22
2018-09-20T05:31:59.428Z,21.21
2018-09-20T05:32:59.727Z,21.22
2018-09-20T05:33:59.524Z,21.22
2018-09-20T05:34:59.921Z,21.21
2018-09-20T05:35:59.472Z,21.21
2018-09-20T05:36:59.566Z,21.22
2018-09-20T05:37:59.576Z,21.21
2018-09-20T05:38:59.981Z,21.21
2018-09-20T05:39:59.853Z,21.21
2018-09-20T05:41:00.090Z,21.22
2018-09-20T05:41:59.623Z,21.21
2018-09-20T05:42:59.682Z,21.22
2018-09-20T05:43:59.570Z,21.21
2018-09-20T05:44:59.601Z,21.21
2018-09-20T05:45:59.560Z,21.21
2018-09-20T05:46:59.637Z,21.21
2018-09-20T05:47:59.698Z,21.21
2018-09-20T05:48:59.625Z,21.21
2018-09-20T05:49:59.502Z,21.21
2018-09-20T05:50:59.726Z,21.21
2018-09-20T05:51:59.739Z,21.21
2018-09-20T05:52:59.722Z,21.21
2018-09-20T05:53:59.409Z,21.2
2018-09-20T05:54:59.830Z,21.21
2018-09-20T05:55:59.572Z,21.21
2018-09-20T05:56:59.419Z,21.2
2018-09-20T05:57:59.504Z,21.21
2018-09-20T05:58:59.878Z,21.21
2018-09-20T05:59:59.695Z,21.2
2018-09-20T06:00:59.419Z,21.21
2018-09-20T06:01:59.646Z,21.21
2018-09-20T06:02:59.714Z,21.2
2018-09-20T06:03:59.783Z,21.21
2018-09-20T06:04:59.845Z,21.22
2018-09-20T06:05:59.706Z,21.21
2018-09-20T06:06:59.742Z,21.2
2018-09-20T06:07:59.613Z,21.22
2018-09-20T06:08:59.657Z,21.21
2018-09-20T06:09:59.779Z,21.2
2018-09-20T06:10:59.601Z,21.21
2018-09-20T06:11:59.672Z,21.21
2018-09-20T06:12:59.553Z,21.2
2018-09-20T06:13:59.624Z,21.2
2018-09-20T06:14:59.802Z,21.2
2018-09-20T06:15:59.657Z,21.18
2018-09-20T06:16:59.751Z,21.19
2018-09-20T06:17:59.712Z,21.09
2018-09-20T06:18:59.707Z,21.07
2018-09-20T06:19:59.655Z,21.07
2018-09-20T06:20:59.718Z,21.06
2018-09-20T06:21:59.720Z,21.05
2018-09-20T06:22:59.585Z,21.01
2018-09-20T06:23:59.419Z,20.95
2018-09-20T06:24:59.767Z,20.99
2018-09-20T06:25:59.580Z,20.98
2018-09-20T06:26:59.602Z,21.02
2018-09-20T06:27:59.906Z,21.05
2018-09-20T06:28:59.440Z,21.1
2018-09-20T06:29:59.541Z,21.11
2018-09-20T06:30:59.737Z,21.1
2018-09-20T06:31:59.566Z,21.14
2018-09-20T06:32:59.497Z,21.14
2018-09-20T06:33:59.601Z,21.16
2018-09-20T06:34:59.463Z,21.17
2018-09-20T06:35:59.761Z,21.17
2018-09-20T06:36:59.666Z,21.18
2018-09-20T06:37:59.617Z,21.2
2018-09-20T06:38:59.529Z,21.2
2018-09-20T06:39:59.576Z,21.19
2018-09-20T06:40:59.637Z,21.21
2018-09-20T06:41:59.588Z,21.21
2018-09-20T06:42:59.450Z,21.22
2018-09-20T06:43:59.624Z,21.22
2018-09-20T06:44:59.419Z,21.23
2018-09-20T06:45:59.525Z,21.25
2018-09-20T06:46:59.563Z,21.26
2018-09-20T06:47:59.454Z,21.28
2018-09-20T06:48:59.456Z,21.29
2018-09-20T06:49:59.835Z,21.3
2018-09-20T06:50:59.511Z,21.3
2018-09-20T06:51:59.577Z,21.32
2018-09-20T06:52:59.645Z,21.32
2018-09-20T06:53:59.639Z,21.34
2018-09-20T06:54:59.420Z,21.33
2018-09-20T06:55:59.528Z,21.32
2018-09-20T06:57:00.016Z,21.32
2018-09-20T06:57:59.589Z,21.33
2018-09-20T06:58:59.381Z,21.34
2018-09-20T06:59:59.381Z,21.34
2018-09-20T07:00:59.655Z,21.34
2018-09-20T07:01:59.565Z,21.34
2018-09-20T07:02:59.438Z,21.35
2018-09-20T07:03:59.601Z,21.34
2018-09-20T07:04:59.751Z,21.34
2018-09-20T07:05:59.531Z,21.34
2018-09-20T07:06:59.794Z,21.35
2018-09-20T07:07:59.623Z,21.35
2018-09-20T07:08:59.452Z,21.34
2018-09-20T07:09:59.670Z,21.36
2018-09-20T07:10:59.638Z,21.35
2018-09-20T07:11:59.740Z,21.35
2018-09-20T07:12:59.629Z,21.36
2018-09-20T07:13:59.587Z,21.36
2018-09-20T07:14:59.630Z,21.35
2018-09-20T07:15:59.922Z,21.37
2018-09-20T07:16:59.629Z,21.37
2018-09-20T07:17:59.400Z,21.37
2018-09-20T07:18:59.632Z,21.38
2018-09-20T07:19:59.606Z,21.37
2018-09-20T07:20:59.499Z,21.36
2018-09-20T07:21:59.540Z,21.37
2018-09-20T07:22:59.764Z,21.37
2018-09-20T07:24:00.071Z,21.37
2018-09-20T07:24:59.932Z,21.37
2018-09-20T07:25:59.540Z,21.35
2018-09-20T07:26:59.596Z,21.34
2018-09-20T07:27:59.858Z,21.33
2018-09-20T07:28:59.900Z,21.32
2018-09-20T07:29:59.598Z,21.31
2018-09-20T07:30:59.614Z,21.31
2018-09-20T07:31:59.417Z,21.31
2018-09-20T07:32:59.703Z,21.3
2018-09-20T07:33:59.599Z,21.3
2018-09-20T07:34:59.583Z,21.29
2018-09-20T07:35:59.560Z,21.33
2018-09-20T07:36:59.868Z,21.34
2018-09-20T07:37:59.556Z,21.35
2018-09-20T07:38:59.519Z,21.38
2018-09-20T07:39:59.442Z,21.39
2018-09-20T07:40:59.380Z,21.41
2018-09-20T07:41:59.604Z,21.38
2018-09-20T07:42:59.422Z,21.4
2018-09-20T07:43:59.418Z,21.41
2018-09-20T07:44:59.554Z,21.43
2018-09-20T07:45:59.452Z,21.45
2018-09-20T07:46:59.392Z,21.43
2018-09-20T07:47:59.635Z,21.44
2018-09-20T07:48:59.747Z,21.45
2018-09-20T07:49:59.664Z,21.45
2018-09-20T07:50:59.760Z,21.47
2018-09-20T07:51:59.697Z,21.48
2018-09-20T07:52:59.511Z,21.49
2018-09-20T07:53:59.401Z,21.5
2018-09-20T07:54:59.637Z,21.5
2018-09-20T07:55:59.586Z,21.51
2018-09-20T07:56:59.476Z,21.5
2018-09-20T07:57:59.444Z,21.54
2018-09-20T07:58:59.729Z,21.54
2018-09-20T07:59:59.704Z,21.54
2018-09-20T08:00:59.642Z,21.53
2018-09-20T08:01:59.790Z,21.53
2018-09-20T08:02:59.436Z,21.55
2018-09-20T08:03:59.844Z,21.54
2018-09-20T08:04:59.515Z,21.55
2018-09-20T08:05:59.894Z,21.57
2018-09-20T08:06:59.961Z,21.57
2018-09-20T08:07:59.623Z,21.57
2018-09-20T08:08:59.330Z,21.57
2018-09-20T08:09:59.685Z,21.57
2018-09-20T08:10:59.379Z,21.58
2018-09-20T08:11:59.745Z,21.59
2018-09-20T08:12:59.858Z,21.59
2018-09-20T08:13:59.834Z,21.6
2018-09-20T08:14:59.327Z,21.6
2018-09-20T08:15:59.719Z,21.61
2018-09-20T08:16:59.397Z,21.62
2018-09-20T08:17:59.648Z,21.62
2018-09-20T08:18:59.523Z,21.63
2018-09-20T08:19:59.576Z,21.63
2018-09-20T08:20:59.479Z,21.61
2018-09-20T08:21:59.666Z,21.61
2018-09-20T08:22:59.533Z,21.6
2018-09-20T08:23:59.825Z,21.61
2018-09-20T08:24:59.802Z,21.57
2018-09-20T08:25:59.502Z,21.57
2018-09-20T08:26:59.447Z,21.59
2018-09-20T08:27:59.425Z,21.6
2018-09-20T08:28:59.687Z,21.61
2018-09-20T08:29:59.857Z,21.62
2018-09-20T08:30:59.823Z,21.61
2018-09-20T08:31:59.658Z,21.6
2018-09-20T08:32:59.532Z,21.61
2018-09-20T08:33:59.550Z,21.6
2018-09-20T08:34:59.448Z,21.6
2018-09-20T08:35:59.602Z,21.62
2018-09-20T08:37:00.125Z,21.63
2018-09-20T08:37:59.716Z,21.62
2018-09-20T08:38:59.591Z,21.63
2018-09-20T08:39:59.713Z,21.65
2018-09-20T08:40:59.343Z,21.65
2018-09-20T08:41:59.517Z,21.65
2018-09-20T08:42:59.345Z,21.62
2018-09-20T08:43:59.784Z,21.66
2018-09-20T08:44:59.613Z,21.65
2018-09-20T08:45:59.726Z,21.67
2018-09-20T08:46:59.588Z,21.68
2018-09-20T08:47:59.511Z,21.67
2018-09-20T08:48:59.472Z,21.68
2018-09-20T08:49:59.706Z,21.68
2018-09-20T08:50:59.565Z,21.71
2018-09-20T08:51:59.538Z,21.7
2018-09-20T08:52:59.582Z,21.7
2018-09-20T08:53:59.382Z,21.71
2018-09-20T08:54:59.457Z,21.71
2018-09-20T08:55:59.619Z,21.7
2018-09-20T08:56:59.662Z,21.7
2018-09-20T08:57:59.635Z,21.68
2018-09-20T08:58:59.361Z,21.69
2018-09-20T08:59:59.357Z,21.68
2018-09-20T09:00:59.489Z,21.68
2018-09-20T09:01:59.435Z,21.68
2018-09-20T09:02:59.673Z,21.67
2018-09-20T09:03:59.498Z,21.68
2018-09-20T09:04:59.513Z,21.7
2018-09-20T09:05:59.490Z,21.7
2018-09-20T09:06:59.588Z,21.72
2018-09-20T09:07:59.517Z,21.74
2018-09-20T09:08:59.364Z,21.7
2018-09-20T09:09:59.945Z,21.72
2018-09-20T09:10:59.731Z,21.73
2018-09-20T09:11:59.833Z,21.72
2018-09-20T09:12:59.978Z,21.74
2018-09-20T09:13:59.664Z,21.75
2018-09-20T09:14:59.652Z,21.75
2018-09-20T09:15:59.349Z,21.75
2018-09-20T09:16:59.436Z,21.74
2018-09-20T09:17:59.441Z,21.75
2018-09-20T09:18:59.627Z,21.74
2018-09-20T09:19:59.572Z,21.74
2018-09-20T09:20:59.599Z,21.73
2018-09-20T09:21:59.825Z,21.73
2018-09-20T09:22:59.394Z,21.71
2018-09-20T09:23:59.941Z,21.7
2018-09-20T09:24:59.726Z,21.73
2018-09-20T09:25:59.619Z,21.75
2018-09-20T09:26:59.564Z,21.75
2018-09-20T09:27:59.391Z,21.76
2018-09-20T09:28:59.658Z,21.78
2018-09-20T09:29:59.599Z,21.8
2018-09-20T09:30:59.872Z,21.8
2018-09-20T09:31:59.380Z,21.8
2018-09-20T09:32:59.464Z,21.81
2018-09-20T09:33:59.698Z,21.81
2018-09-20T09:34:59.542Z,21.8
2018-09-20T09:35:59.589Z,21.78
2018-09-20T09:36:59.712Z,21.76
2018-09-20T09:37:59.721Z,21.76
2018-09-20T09:38:59.411Z,21.76
2018-09-20T09:39:59.626Z,21.75
2018-09-20T09:40:59.670Z,21.75
2018-09-20T09:41:59.521Z,21.74
2018-09-20T09:42:59.308Z,21.73
2018-09-20T09:43:59.755Z,21.72
2018-09-20T09:44:59.886Z,21.68
2018-09-20T09:45:59.703Z,21.7
2018-09-20T09:46:59.465Z,21.71
2018-09-20T09:47:59.775Z,21.72
2018-09-20T09:48:59.559Z,21.75
2018-09-20T09:49:59.506Z,21.76
2018-09-20T09:50:59.695Z,21.77
2018-09-20T09:51:59.821Z,21.79
2018-09-20T09:52:59.653Z,21.78
2018-09-20T09:53:59.628Z,21.78
2018-09-20T09:54:59.335Z,21.81
2018-09-20T09:55:59.333Z,21.8
2018-09-20T09:56:59.623Z,21.8
2018-09-20T09:57:59.604Z,21.83
2018-09-20T09:58:59.691Z,21.82
2018-09-20T09:59:59.788Z,21.81
2018-09-20T10:00:59.593Z,21.83
2018-09-20T10:01:59.396Z,21.82
2018-09-20T10:03:00.011Z,21.82
2018-09-20T10:03:59.829Z,21.83
2018-09-20T10:04:59.702Z,21.81
2018-09-20T10:05:59.488Z,21.81
2018-09-20T10:06:59.721Z,21.81
2018-09-20T10:07:59.950Z,21.8
2018-09-20T10:08:59.857Z,21.79
2018-09-20T10:09:59.734Z,21.78
2018-09-20T10:10:59.360Z,21.78
2018-09-20T10:11:59.441Z,21.79
2018-09-20T10:12:59.627Z,21.77
2018-09-20T10:13:59.671Z,21.76
2018-09-20T10:14:59.702Z,21.76
2018-09-20T10:15:59.613Z,21.76
2018-09-20T10:16:59.650Z,21.75
2018-09-20T10:17:59.440Z,21.74
2018-09-20T10:18:59.459Z,21.74
2018-09-20T10:19:59.518Z,21.73
2018-09-20T10:20:59.322Z,21.72
2018-09-20T10:21:59.364Z,21.75
2018-09-20T10:22:59.415Z,21.76
2018-09-20T10:23:59.394Z,21.76
2018-09-20T10:24:59.452Z,21.77
2018-09-20T10:25:59.390Z,21.76
2018-09-20T10:26:59.508Z,21.76
2018-09-20T10:27:59.397Z,21.76
2018-09-20T10:28:59.660Z,21.78
2018-09-20T10:29:59.553Z,21.78
2018-09-20T10:30:59.554Z,21.78
2018-09-20T10:31:59.623Z,21.78
2018-09-20T10:32:59.632Z,21.78
2018-09-20T10:33:59.631Z,21.78
2018-09-20T10:34:59.569Z,21.77
2018-09-20T10:35:59.449Z,21.77
2018-09-20T10:36:59.645Z,21.76
2018-09-20T10:37:59.750Z,21.76
2018-09-20T10:38:59.714Z,21.76
2018-09-20T10:39:59.567Z,21.74
2018-09-20T10:40:59.515Z,21.75
2018-09-20T10:41:59.372Z,21.75
2018-09-20T10:42:59.691Z,21.77
2018-09-20T10:43:59.690Z,21.75
2018-09-20T10:44:59.438Z,21.76
2018-09-20T10:45:59.710Z,21.75
2018-09-20T10:46:59.767Z,21.74
2018-09-20T10:47:59.339Z,21.75
2018-09-20T10:48:59.339Z,21.76
2018-09-20T10:49:59.569Z,21.75
2018-09-20T10:51:00.125Z,21.75
2018-09-20T10:51:59.482Z,21.75
2018-09-20T10:52:59.415Z,21.74
2018-09-20T10:53:59.873Z,21.75
2018-09-20T10:54:59.488Z,21.75
2018-09-20T10:55:59.386Z,21.75
2018-09-20T10:56:59.729Z,21.75
2018-09-20T10:57:59.609Z,21.72
2018-09-20T10:58:59.495Z,21.71
2018-09-20T10:59:59.701Z,21.7
2018-09-20T11:00:59.816Z,21.69
2018-09-20T11:01:59.663Z,21.68
2018-09-20T11:02:59.657Z,21.68
2018-09-20T11:03:59.332Z,21.69
2018-09-20T11:04:59.783Z,21.69
2018-09-20T11:05:59.756Z,21.68
2018-09-20T11:06:59.598Z,21.68
2018-09-20T11:07:59.589Z,21.67
2018-09-20T11:08:59.688Z,21.67
2018-09-20T11:09:59.684Z,21.66
2018-09-20T11:10:59.830Z,21.66
2018-09-20T11:11:59.476Z,21.66
2018-09-20T11:12:59.434Z,21.66
2018-09-20T11:13:59.660Z,21.65
2018-09-20T11:14:59.717Z,21.65
2018-09-20T11:15:59.861Z,21.65
2018-09-20T11:16:59.731Z,21.64
2018-09-20T11:17:59.608Z,21.64
2018-09-20T11:18:59.643Z,21.64
2018-09-20T11:19:59.285Z,21.63
2018-09-20T11:20:59.380Z,21.63
2018-09-20T11:21:59.408Z,21.63
2018-09-20T11:22:59.665Z,21.61
2018-09-20T11:23:59.773Z,21.63
2018-09-20T11:24:59.277Z,21.62
2018-09-20T11:26:00.090Z,21.62
2018-09-20T11:26:59.739Z,21.6
2018-09-20T11:27:59.460Z,21.61
2018-09-20T11:28:59.588Z,21.61
2018-09-20T11:29:59.480Z,21.61
2018-09-20T11:30:59.828Z,21.59
2018-09-20T11:31:59.323Z,21.59
2018-09-20T11:32:59.363Z,21.59
2018-09-20T11:33:59.335Z,21.6
2018-09-20T11:34:59.658Z,21.58
2018-09-20T11:35:59.761Z,21.59
2018-09-20T11:36:59.450Z,21.59
2018-09-20T11:37:59.567Z,21.58
2018-09-20T11:38:59.393Z,21.59
2018-09-20T11:39:59.457Z,21.59
2018-09-20T11:40:59.297Z,21.58
2018-09-20T11:41:59.352Z,21.58
2018-09-20T11:42:59.611Z,21.57
2018-09-20T11:43:59.686Z,21.58
2018-09-20T11:44:59.580Z,21.57
2018-09-20T11:45:59.361Z,21.57
2018-09-20T11:46:59.378Z,21.58
2018-09-20T11:47:59.256Z,21.6
2018-09-20T11:48:59.552Z,21.61
2018-09-20T11:49:59.473Z,21.62
2018-09-20T11:50:59.434Z,21.64
2018-09-20T11:51:59.342Z,21.64
2018-09-20T11:52:59.396Z,21.63
2018-09-20T11:53:59.334Z,21.64
2018-09-20T11:54:59.402Z,21.64
2018-09-20T11:55:59.520Z,21.64
2018-09-20T11:56:59.452Z,21.64
2018-09-20T11:57:59.398Z,21.64
2018-09-20T11:58:59.489Z,21.66
2018-09-20T11:59:59.652Z,21.67
2018-09-20T12:00:59.952Z,21.66
2018-09-20T12:01:59.651Z,21.65
2018-09-20T12:02:59.531Z,21.64
2018-09-20T12:03:59.382Z,21.64
2018-09-20T12:04:59.645Z,21.65
2018-09-20T12:05:59.467Z,21.65
2018-09-20T12:06:59.458Z,21.65
2018-09-20T12:07:59.348Z,21.65
2018-09-20T12:08:59.523Z,21.65
2018-09-20T12:09:59.999Z,21.66
2018-09-20T12:10:59.729Z,21.7
2018-09-20T12:11:59.405Z,21.7
2018-09-20T12:12:59.874Z,21.7
2018-09-20T12:13:59.482Z,21.74
2018-09-20T12:14:59.462Z,21.74
2018-09-20T12:15:59.608Z,21.75
2018-09-20T12:16:59.360Z,21.77
2018-09-20T12:17:59.632Z,21.77
2018-09-20T12:18:59.218Z,21.78
2018-09-20T12:19:59.595Z,21.78
2018-09-20T12:20:59.652Z,21.79
2018-09-20T12:21:59.282Z,21.79
2018-09-20T12:22:59.764Z,21.8
2018-09-20T12:23:59.464Z,21.79
2018-09-20T12:24:59.681Z,21.79
2018-09-20T12:25:59.617Z,21.81
2018-09-20T12:26:59.608Z,21.8
2018-09-20T12:27:59.700Z,21.81
2018-09-20T12:28:59.701Z,21.84
2018-09-20T12:29:59.627Z,21.83
2018-09-20T12:30:59.727Z,21.85
2018-09-20T12:31:59.371Z,21.86
2018-09-20T12:32:59.575Z,21.85
2018-09-20T12:33:59.731Z,21.86
2018-09-20T12:34:59.596Z,21.87
2018-09-20T12:35:59.341Z,21.86
2018-09-20T12:36:59.291Z,21.87
2018-09-20T12:37:59.286Z,21.85
2018-09-20T12:38:59.402Z,21.87
2018-09-20T12:39:59.589Z,21.87
2018-09-20T12:40:59.485Z,21.87
2018-09-20T12:41:59.302Z,21.88
2018-09-20T12:42:59.749Z,21.89
2018-09-20T12:43:59.285Z,21.88
2018-09-20T12:44:59.455Z,21.88
2018-09-20T12:45:59.625Z,21.89
2018-09-20T12:46:59.645Z,21.89
2018-09-20T12:47:59.597Z,21.9
2018-09-20T12:48:59.552Z,21.91
2018-09-20T12:49:59.388Z,21.9
2018-09-20T12:50:59.665Z,21.91
2018-09-20T13:19:13.273Z,22.07
2018-09-20T13:20:13.446Z,21.97
2018-09-20T13:21:13.404Z,21.92
2018-09-20T13:22:13.524Z,21.91
2018-09-20T13:23:13.866Z,21.88